Time;durP1;ratioP1;P1;durP2;ratioP2;P2;SDS_P1;SDS_P2;PMS_P1;PMS_P2;Temp;Humidity;BMP_temperature;BMP_pressure;BME280_temperature;BME280_humidity;BME280_pressure;Samples;Min_cycle;Max_cycle;Signal;HPM_P1;HPM_P2
2021/12/10 00:00:40;;;;;;;;;;;4.00;99.90;;;;;;5033510;28;19927;-79
2021/12/10 00:03:10;;;;;;;;;;;4.00;99.90;;;;;;5017592;28;19927;-80
2021/12/10 00:05:39;;;;;;;;;;;4.10;99.90;;;;;;5036310;28;19928;-79
2021/12/10 00:08:05;;;;;;;;;;;4.10;99.90;;;;;;5036699;28;19928;-80
2021/12/10 00:10:33;;;;;;;;;;;4.10;99.90;;;;;;5035542;28;19921;-79
2021/12/10 00:12:59;;;;;;;;;;;4.10;99.90;;;;;;5017630;28;20000;-80
2021/12/10 00:15:26;;;;;;;;;;;4.20;99.90;;;;;;5035613;28;20010;-80
2021/12/10 00:17:53;;;;;;;;;;;4.10;99.90;;;;;;5017357;28;19928;-80
2021/12/10 00:20:19;;;;;;;;;;;4.10;99.90;;;;;;5017344;28;19921;-79
2021/12/10 00:22:54;;;;;;;;;;;4.10;99.90;;;;;;5035410;28;19921;-79
2021/12/10 00:25:22;;;;;;;;;;;4.20;99.90;;;;;;5035720;28;19940;-79
2021/12/10 00:27:49;;;;;;;;;;;4.10;99.90;;;;;;5035884;28;19920;-79
2021/12/10 00:30:18;;;;;;;;;;;4.20;99.90;;;;;;5035693;28;20450;-80
2021/12/10 00:32:54;;;;;;;;;;;4.10;99.90;;;;;;5017392;28;19921;-80
2021/12/10 00:35:21;;;;;;;;;;;4.10;99.90;;;;;;5017476;28;19928;-79
2021/12/10 00:37:47;;;;;;;;;;;4.20;99.90;;;;;;5038003;28;20356;-79
2021/12/10 00:40:14;;;;;;;;;;;4.20;99.90;;;;;;5042588;28;19920;-79
2021/12/10 00:42:40;;;;;;;;;;;4.10;99.90;;;;;;5041997;28;19928;-79
2021/12/10 00:45:08;;;;;;;;;;;4.10;99.90;;;;;;5024376;28;20291;-80
2021/12/10 00:47:33;;;;;;;;;;;4.10;99.90;;;;;;5042849;28;19921;-80
2021/12/10 00:49:59;;;;;;;;;;;4.70;99.90;;;;;;5042754;28;20011;-80
2021/12/10 00:52:24;;;;;;;;;;;4.10;99.90;;;;;;5042490;28;20010;-79
2021/12/10 00:54:50;;;;;;;;;;;4.10;99.90;;;;;;5041967;28;19925;-80
2021/12/10 00:57:15;;;;;;;;;;;4.10;99.90;;;;;;5041596;28;19920;-79
2021/12/10 00:59:42;;;;;;;;;;;4.10;99.90;;;;;;5042444;28;19990;-80
2021/12/10 01:02:09;;;;;;;;;;;4.10;99.90;;;;;;5041964;28;19925;-80
2021/12/10 01:04:35;;;;;;;;;;;4.10;99.90;;;;;;5042497;28;19917;-79
2021/12/10 01:07:03;;;;;;;;;;;4.00;99.90;;;;;;5024080;28;20350;-79
2021/12/10 01:09:34;;;;;;;;;;;4.00;99.90;;;;;;5041972;28;19921;-80
2021/12/10 01:12:05;;;;;;;;;;;4.00;99.90;;;;;;5041197;28;20363;-79
2021/12/10 01:14:54;;;;;;;;;;;3.90;99.90;;;;;;5041611;28;19921;-79
2021/12/10 01:25:40;;;;;;;;;;;3.90;99.90;;;;;;5042203;28;19921;-79
2021/12/10 01:28:07;;;;;;;;;;;4.00;99.90;;;;;;5024488;28;19921;-80
2021/12/10 01:30:35;;;;;;;;;;;4.10;99.90;;;;;;5041970;28;20016;-79
2021/12/10 01:33:06;;;;;;;;;;;4.00;99.90;;;;;;5041761;28;19928;-79
2021/12/10 01:35:35;;;;;;;;;;;4.00;99.90;;;;;;5041399;28;20431;-80
2021/12/10 01:38:01;;;;;;;;;;;4.00;99.90;;;;;;5042183;28;20435;-79
2021/12/10 01:40:27;;;;;;;;;;;4.00;99.90;;;;;;5041585;28;20071;-79
2021/12/10 01:43:00;;;;;;;;;;;4.00;99.90;;;;;;5023741;28;19921;-80
2021/12/10 01:45:30;;;;;;;;;;;4.00;99.90;;;;;;5041643;28;19946;-79
2021/12/10 01:47:55;;;;;;;;;;;4.00;99.90;;;;;;5024183;28;19928;-79
2021/12/10 01:50:21;;;;;;;;;;;4.00;99.90;;;;;;5039128;28;19921;-80
2021/12/10 01:52:54;;;;;;;;;;;4.00;99.90;;;;;;5021560;28;20326;-79
2021/12/10 01:55:22;;;;;;;;;;;4.10;99.90;;;;;;5039778;28;19921;-79
2021/12/10 01:57:48;;;;;;;;;;;4.00;99.90;;;;;;5004336;28;19971;-79
2021/12/10 02:00:14;;;;;;;;;;;4.10;99.90;;;;;;5038900;28;20020;-79
2021/12/10 02:02:44;;;;;;;;;;;4.10;99.90;;;;;;5038679;28;19960;-80
2021/12/10 02:05:10;;;;;;;;;;;4.10;99.90;;;;;;5021536;28;19960;-79
2021/12/10 02:07:36;;;;;;;;;;;4.10;99.90;;;;;;5006911;28;20490;-79
2021/12/10 02:10:03;;;;;;;;;;;4.10;99.90;;;;;;5021213;28;19925;-79
2021/12/10 02:12:28;;;;;;;;;;;4.10;99.90;;;;;;5038324;28;20292;-79
2021/12/10 02:15:00;;;;;;;;;;;4.20;99.90;;;;;;5039049;28;19928;-80
2021/12/10 02:17:28;;;;;;;;;;;4.00;99.90;;;;;;5038686;28;19944;-80
2021/12/10 02:19:54;;;;;;;;;;;4.70;99.90;;;;;;4988972;28;19925;-79
2021/12/10 02:22:19;;;;;;;;;;;4.10;99.90;;;;;;5020740;28;19921;-79
2021/12/10 02:24:45;;;;;;;;;;;4.00;99.90;;;;;;5038366;28;20011;-79
2021/12/10 02:27:10;;;;;;;;;;;4.00;99.90;;;;;;5004583;28;19921;-79
2021/12/10 02:29:37;;;;;;;;;;;4.50;99.90;;;;;;5038666;28;20371;-79
2021/12/10 02:32:03;;;;;;;;;;;4.00;99.90;;;;;;5020427;28;20395;-80
2021/12/10 02:34:29;;;;;;;;;;;4.00;99.90;;;;;;5037482;28;19924;-80
2021/12/10 02:36:54;;;;;;;;;;;4.00;99.90;;;;;;5039427;28;19928;-79
2021/12/10 02:39:22;;;;;;;;;;;4.00;99.90;;;;;;5038871;28;20011;-80
2021/12/10 02:41:48;;;;;;;;;;;4.00;99.90;;;;;;5038996;28;19921;-80
2021/12/10 02:44:16;;;;;;;;;;;4.00;99.90;;;;;;5020411;28;19924;-79
2021/12/10 02:46:41;;;;;;;;;;;4.00;99.90;;;;;;5038481;28;19968;-80
2021/12/10 02:49:08;;;;;;;;;;;4.20;99.90;;;;;;5038500;28;20437;-80
2021/12/10 02:51:35;;;;;;;;;;;3.90;99.90;;;;;;5039292;28;19943;-80
2021/12/10 02:54:02;;;;;;;;;;;3.90;99.90;;;;;;5038628;28;19928;-80
2021/12/10 02:56:28;;;;;;;;;;;3.90;99.90;;;;;;5038568;28;19921;-79
2021/12/10 02:58:55;;;;;;;;;;;3.90;99.90;;;;;;5038518;28;19928;-79
2021/12/10 03:01:24;;;;;;;;;;;3.90;99.90;;;;;;5037617;28;20330;-80
2021/12/10 03:03:50;;;;;;;;;;;3.80;99.90;;;;;;5037484;28;19943;-79
2021/12/10 03:06:16;;;;;;;;;;;3.90;99.90;;;;;;5038236;28;20011;-79
2021/12/10 03:08:44;;;;;;;;;;;3.80;99.90;;;;;;5038032;28;19931;-79
2021/12/10 03:11:11;;;;;;;;;;;3.80;99.90;;;;;;5019586;28;20430;-79
2021/12/10 03:13:37;;;;;;;;;;;4.10;99.90;;;;;;5037678;28;20340;-79
2021/12/10 03:16:03;;;;;;;;;;;3.80;99.90;;;;;;5020420;28;19960;-79
2021/12/10 03:18:28;;;;;;;;;;;3.70;99.90;;;;;;5019146;28;19921;-80
2021/12/10 03:20:54;;;;;;;;;;;4.00;99.90;;;;;;5037791;28;19968;-79
2021/12/10 03:23:19;;;;;;;;;;;3.70;99.90;;;;;;5038218;28;19925;-79
2021/12/10 03:25:45;;;;;;;;;;;3.70;99.90;;;;;;5039319;28;19944;-79
2021/12/10 03:28:11;;;;;;;;;;;3.70;99.90;;;;;;5038308;28;19921;-79
2021/12/10 03:30:39;;;;;;;;;;;3.60;99.90;;;;;;5038927;28;19953;-79
2021/12/10 03:33:05;;;;;;;;;;;3.60;99.90;;;;;;5038392;28;19927;-80
2021/12/10 03:35:35;;;;;;;;;;;3.60;99.90;;;;;;5038270;28;20450;-79
2021/12/10 03:38:02;;;;;;;;;;;3.50;99.90;;;;;;5020624;28;20367;-79
2021/12/10 03:40:28;;;;;;;;;;;3.80;99.90;;;;;;5004194;28;19921;-79
2021/12/10 03:42:58;;;;;;;;;;;3.50;99.90;;;;;;5019941;28;20011;-79
2021/12/10 03:45:24;;;;;;;;;;;3.50;99.90;;;;;;5020876;28;19921;-80
2021/12/10 03:47:50;;;;;;;;;;;3.40;99.90;;;;;;5037084;28;19928;-80
2021/12/10 03:50:21;;;;;;;;;;;3.40;99.90;;;;;;5019732;28;20364;-79
2021/12/10 03:52:46;;;;;;;;;;;3.40;99.90;;;;;;5039039;28;19921;-80
2021/12/10 03:55:14;;;;;;;;;;;3.40;99.90;;;;;;5039663;28;19931;-80
2021/12/10 03:57:39;;;;;;;;;;;3.30;99.90;;;;;;5038659;28;19921;-80
2021/12/10 04:00:05;;;;;;;;;;;3.30;99.90;;;;;;5038448;28;19921;-80
2021/12/10 04:02:31;;;;;;;;;;;3.20;99.90;;;;;;5037381;28;19924;-80
2021/12/10 04:04:56;;;;;;;;;;;3.20;99.90;;;;;;5037337;28;19944;-80
2021/12/10 04:07:24;;;;;;;;;;;3.10;99.90;;;;;;5036499;28;19931;-79
2021/12/10 04:09:50;;;;;;;;;;;3.10;99.90;;;;;;5019607;28;19921;-80
2021/12/10 04:12:17;;;;;;;;;;;3.60;99.90;;;;;;5037689;28;19928;-80
2021/12/10 04:14:43;;;;;;;;;;;3.00;99.90;;;;;;5019940;28;20019;-79
2021/12/10 04:17:09;;;;;;;;;;;3.40;99.90;;;;;;5019321;28;19921;-79
2021/12/10 04:19:35;;;;;;;;;;;2.80;99.90;;;;;;5036578;28;19928;-79
2021/12/10 04:22:02;;;;;;;;;;;2.80;99.90;;;;;;5018998;28;19979;-79
2021/12/10 04:24:29;;;;;;;;;;;2.70;99.90;;;;;;5036846;28;19967;-79
2021/12/10 04:26:55;;;;;;;;;;;2.70;99.90;;;;;;5019625;28;19927;-80
2021/12/10 04:29:21;;;;;;;;;;;2.70;99.90;;;;;;5036492;28;20372;-79
2021/12/10 04:31:52;;;;;;;;;;;2.60;99.90;;;;;;5036107;28;20007;-80
2021/12/10 04:34:18;;;;;;;;;;;2.60;99.90;;;;;;5017730;28;19921;-80
2021/12/10 04:36:45;;;;;;;;;;;2.50;99.90;;;;;;5036456;28;19928;-79
2021/12/10 04:39:10;;;;;;;;;;;2.50;99.90;;;;;;5017666;28;19956;-80
2021/12/10 04:41:36;;;;;;;;;;;2.40;99.90;;;;;;5018347;28;19921;-79
2021/12/10 04:44:02;;;;;;;;;;;2.30;99.90;;;;;;5035470;28;19925;-79
2021/12/10 04:46:28;;;;;;;;;;;2.30;99.90;;;;;;5018562;28;20391;-79
2021/12/10 04:48:55;;;;;;;;;;;2.20;99.90;;;;;;5035738;28;20275;-80
2021/12/10 04:51:23;;;;;;;;;;;2.10;99.90;;;;;;5035953;28;20015;-79
2021/12/10 04:53:49;;;;;;;;;;;2.10;99.90;;;;;;5035857;28;19921;-79
2021/12/10 04:56:15;;;;;;;;;;;2.10;99.90;;;;;;5035880;28;19921;-79
2021/12/10 04:58:41;;;;;;;;;;;2.00;99.90;;;;;;5035772;28;19967;-79
2021/12/10 05:01:06;;;;;;;;;;;3.00;99.90;;;;;;5035410;28;19921;-79
2021/12/10 05:03:32;;;;;;;;;;;1.90;99.90;;;;;;5035746;28;20008;-80
2021/12/10 05:06:02;;;;;;;;;;;2.50;99.90;;;;;;5017660;28;20283;-80
2021/12/10 05:08:29;;;;;;;;;;;1.90;99.90;;;;;;5035121;28;19921;-79
2021/12/10 05:10:55;;;;;;;;;;;1.80;99.90;;;;;;5017166;28;19925;-80
2021/12/10 05:13:20;;;;;;;;;;;1.80;99.90;;;;;;5034626;28;19925;-79
2021/12/10 05:15:53;;;;;;;;;;;1.80;99.90;;;;;;5035302;28;19921;-79
2021/12/10 05:18:19;;;;;;;;;;;1.80;99.90;;;;;;5034725;28;19921;-80
2021/12/10 05:20:48;;;;;;;;;;;1.70;99.90;;;;;;5017751;28;19928;-79
2021/12/10 05:23:17;;;;;;;;;;;1.80;99.90;;;;;;5017994;28;19921;-79
2021/12/10 05:25:43;;;;;;;;;;;1.90;99.90;;;;;;5038150;28;19925;-79
2021/12/10 05:28:09;;;;;;;;;;;1.70;99.90;;;;;;5038673;28;19920;-80
2021/12/10 05:30:35;;;;;;;;;;;1.70;99.90;;;;;;5020416;28;19976;-79
2021/12/10 05:33:01;;;;;;;;;;;1.70;99.90;;;;;;5038396;28;19943;-79
2021/12/10 05:35:27;;;;;;;;;;;2.00;99.90;;;;;;5038849;28;19976;-79
2021/12/10 05:37:53;;;;;;;;;;;1.80;99.90;;;;;;5039469;28;20333;-79
2021/12/10 05:40:18;;;;;;;;;;;1.70;99.90;;;;;;5020712;28;19921;-80
2021/12/10 05:42:45;;;;;;;;;;;1.80;99.90;;;;;;5039077;28;20007;-79
2021/12/10 05:45:11;;;;;;;;;;;1.80;99.90;;;;;;5021919;28;19921;-79
2021/12/10 05:47:37;;;;;;;;;;;1.80;99.90;;;;;;5039552;28;20339;-79
2021/12/10 05:50:04;;;;;;;;;;;1.80;99.90;;;;;;5021631;28;19974;-79
2021/12/10 05:52:30;;;;;;;;;;;1.80;99.90;;;;;;5039511;28;19924;-79
2021/12/10 05:54:55;;;;;;;;;;;1.80;99.90;;;;;;5039471;28;19921;-79
2021/12/10 05:57:21;;;;;;;;;;;1.80;99.90;;;;;;5039475;28;20011;-79
2021/12/10 05:59:46;;;;;;;;;;;2.60;99.90;;;;;;5039248;28;19976;-79
2021/12/10 06:02:12;;;;;;;;;;;1.80;99.90;;;;;;5020915;28;19925;-79
2021/12/10 06:04:38;;;;;;;;;;;1.80;99.90;;;;;;5039122;28;20362;-79
2021/12/10 06:07:04;;;;;;;;;;;1.70;99.90;;;;;;5020690;28;19925;-80
2021/12/10 06:09:30;;;;;;;;;;;1.70;99.90;;;;;;5038877;28;19928;-79
2021/12/10 06:11:56;;;;;;;;;;;1.80;99.90;;;;;;5038640;28;19917;-79
2021/12/10 06:14:21;;;;;;;;;;;1.80;99.90;;;;;;5038618;28;20030;-79
2021/12/10 06:16:47;;;;;;;;;;;1.80;99.90;;;;;;5039573;28;19921;-79
2021/12/10 06:19:12;;;;;;;;;;;1.80;99.90;;;;;;5021696;28;19920;-79
2021/12/10 06:21:38;;;;;;;;;;;1.90;99.90;;;;;;5020968;28;20028;-79
2021/12/10 06:24:05;;;;;;;;;;;1.90;99.90;;;;;;5038586;28;20394;-80
2021/12/10 06:26:31;;;;;;;;;;;2.10;99.90;;;;;;5038586;28;19921;-79
2021/12/10 06:28:57;;;;;;;;;;;1.90;99.90;;;;;;5037146;28;20446;-79
2021/12/10 06:31:23;;;;;;;;;;;2.00;99.90;;;;;;5020430;28;19964;-79
2021/12/10 06:33:49;;;;;;;;;;;2.00;99.90;;;;;;5019763;28;20265;-79
2021/12/10 06:36:15;;;;;;;;;;;2.00;99.90;;;;;;5038020;28;19922;-80
2021/12/10 06:38:41;;;;;;;;;;;2.00;99.90;;;;;;5037710;28;19974;-79
2021/12/10 06:41:07;;;;;;;;;;;1.90;99.90;;;;;;5036930;28;19925;-80
2021/12/10 06:43:33;;;;;;;;;;;1.90;99.90;;;;;;5038264;28;19922;-79
2021/12/10 06:46:00;;;;;;;;;;;1.90;99.90;;;;;;5037907;28;19944;-79
2021/12/10 06:48:26;;;;;;;;;;;1.90;99.90;;;;;;5038624;28;20003;-79
2021/12/10 06:50:53;;;;;;;;;;;1.80;99.90;;;;;;5020526;28;19947;-79
2021/12/10 06:53:20;;;;;;;;;;;1.80;99.90;;;;;;5038992;28;19921;-79
2021/12/10 06:55:46;;;;;;;;;;;1.80;99.90;;;;;;5019883;28;20318;-80
2021/12/10 06:58:12;;;;;;;;;;;1.80;99.90;;;;;;5038325;28;19925;-80
2021/12/10 07:00:43;;;;;;;;;;;1.80;99.90;;;;;;5038130;28;20368;-79
2021/12/10 07:03:12;;;;;;;;;;;1.70;99.90;;;;;;5036044;28;19921;-79
2021/12/10 07:05:37;;;;;;;;;;;1.70;99.90;;;;;;5019659;28;19921;-79
2021/12/10 07:08:03;;;;;;;;;;;1.70;99.90;;;;;;5018994;28;20008;-80
2021/12/10 07:10:29;;;;;;;;;;;1.60;99.90;;;;;;5036772;28;19927;-79
2021/12/10 07:12:54;;;;;;;;;;;1.60;99.90;;;;;;5037718;28;19917;-80
2021/12/10 07:15:20;;;;;;;;;;;1.60;99.90;;;;;;5038620;28;19928;-80
2021/12/10 07:17:47;;;;;;;;;;;1.70;99.90;;;;;;5037269;28;19924;-79
2021/12/10 07:20:15;;;;;;;;;;;1.70;99.90;;;;;;5036803;28;20346;-79
2021/12/10 07:22:40;;;;;;;;;;;1.70;99.90;;;;;;5019810;28;20367;-79
2021/12/10 07:25:07;;;;;;;;;;;1.70;99.90;;;;;;5019712;28;19917;-79
2021/12/10 07:27:32;;;;;;;;;;;1.70;99.90;;;;;;5037955;28;19960;-80
2021/12/10 07:29:58;;;;;;;;;;;2.00;99.90;;;;;;5037190;28;19924;-79
2021/12/10 07:32:23;;;;;;;;;;;1.70;99.90;;;;;;5037814;28;19921;-80
2021/12/10 07:34:49;;;;;;;;;;;1.70;99.90;;;;;;5019319;28;19921;-79
2021/12/10 07:37:15;;;;;;;;;;;1.70;99.90;;;;;;5037505;28;19921;-79
2021/12/10 07:39:40;;;;;;;;;;;1.70;99.90;;;;;;5018868;28;20367;-79
2021/12/10 07:42:07;;;;;;;;;;;1.70;99.90;;;;;;5035230;28;19921;-79
2021/12/10 07:44:33;;;;;;;;;;;1.70;99.90;;;;;;5037228;28;19920;-79
2021/12/10 07:47:04;;;;;;;;;;;2.50;99.90;;;;;;5036473;28;19928;-79
2021/12/10 07:49:31;;;;;;;;;;;1.70;99.90;;;;;;5037157;28;19932;-79
2021/12/10 07:51:58;;;;;;;;;;;1.80;99.90;;;;;;5036670;28;19928;-79
2021/12/10 07:54:24;;;;;;;;;;;2.10;99.90;;;;;;5036788;28;20375;-79
2021/12/10 07:56:50;;;;;;;;;;;1.80;99.90;;;;;;5036498;28;19921;-79
2021/12/10 07:59:16;;;;;;;;;;;1.80;99.90;;;;;;5018138;28;20354;-79
2021/12/10 08:01:42;;;;;;;;;;;1.80;99.90;;;;;;5018050;28;19968;-79
2021/12/10 08:04:08;;;;;;;;;;;1.90;99.90;;;;;;5035810;28;20380;-79
2021/12/10 08:06:34;;;;;;;;;;;1.90;99.90;;;;;;5018182;28;19921;-79
2021/12/10 08:09:01;;;;;;;;;;;1.90;99.90;;;;;;5035845;28;20000;-79
2021/12/10 08:11:26;;;;;;;;;;;1.90;99.90;;;;;;5017978;28;19928;-79
2021/12/10 08:13:52;;;;;;;;;;;1.90;99.90;;;;;;5035227;28;19924;-79
2021/12/10 08:16:18;;;;;;;;;;;1.90;99.90;;;;;;5035854;28;19921;-79
2021/12/10 08:18:45;;;;;;;;;;;1.90;99.90;;;;;;5034913;28;20010;-79
2021/12/10 08:21:10;;;;;;;;;;;1.90;99.90;;;;;;5035874;28;19928;-79
2021/12/10 08:23:36;;;;;;;;;;;2.00;99.90;;;;;;5037539;28;20335;-79
2021/12/10 08:26:03;;;;;;;;;;;2.00;99.90;;;;;;5037543;28;20016;-80
2021/12/10 08:28:29;;;;;;;;;;;2.30;99.90;;;;;;5036197;28;19921;-79
2021/12/10 08:30:55;;;;;;;;;;;2.10;99.90;;;;;;5036164;28;20363;-79
2021/12/10 08:33:22;;;;;;;;;;;2.10;99.90;;;;;;5036441;28;19921;-79
2021/12/10 08:35:50;;;;;;;;;;;2.10;99.90;;;;;;5018746;28;20364;-79
2021/12/10 08:38:15;;;;;;;;;;;2.20;99.90;;;;;;5036126;28;20323;-80
2021/12/10 08:40:43;;;;;;;;;;;2.20;99.90;;;;;;5035726;28;19971;-79
2021/12/10 08:43:09;;;;;;;;;;;2.30;99.90;;;;;;5035821;28;19924;-79
2021/12/10 08:45:36;;;;;;;;;;;2.30;99.90;;;;;;5036048;28;19921;-79
2021/12/10 08:48:03;;;;;;;;;;;2.30;99.90;;;;;;5036164;28;19956;-79
2021/12/10 08:50:28;;;;;;;;;;;2.40;99.90;;;;;;5034675;28;19917;-79
2021/12/10 08:52:57;;;;;;;;;;;2.40;99.90;;;;;;5035304;28;19921;-79
2021/12/10 08:55:24;;;;;;;;;;;2.40;99.90;;;;;;5035291;28;19976;-79
2021/12/10 08:57:49;;;;;;;;;;;2.40;99.90;;;;;;5035194;28;20462;-79
2021/12/10 09:00:16;;;;;;;;;;;2.40;99.90;;;;;;5039532;28;19960;-79
2021/12/10 09:02:42;;;;;;;;;;;2.40;99.90;;;;;;5040082;28;19982;-79
2021/12/10 09:05:09;;;;;;;;;;;2.40;99.90;;;;;;5040227;28;19925;-79
2021/12/10 09:07:35;;;;;;;;;;;2.40;99.90;;;;;;5022019;28;19928;-79
2021/12/10 09:10:01;;;;;;;;;;;2.40;99.90;;;;;;5022205;28;19925;-79
2021/12/10 09:12:27;;;;;;;;;;;2.30;99.90;;;;;;5040006;28;19944;-79
2021/12/10 09:14:55;;;;;;;;;;;2.30;99.90;;;;;;5021947;28;19921;-79
2021/12/10 09:17:23;;;;;;;;;;;2.20;99.90;;;;;;5039480;28;19927;-79
2021/12/10 09:19:50;;;;;;;;;;;2.20;99.90;;;;;;5040018;28;20279;-79
2021/12/10 09:22:16;;;;;;;;;;;2.20;99.90;;;;;;5040356;28;19921;-79
2021/12/10 09:24:42;;;;;;;;;;;2.20;99.90;;;;;;5040075;28;19921;-79
2021/12/10 09:27:07;;;;;;;;;;;2.10;99.90;;;;;;5041294;28;19918;-80
2021/12/10 09:29:37;;;;;;;;;;;2.30;99.90;;;;;;5022549;28;19928;-79
2021/12/10 09:32:05;;;;;;;;;;;2.20;99.90;;;;;;5021359;28;19927;-79
2021/12/10 09:34:31;;;;;;;;;;;2.20;99.90;;;;;;5039768;28;19921;-79
2021/12/10 09:36:56;;;;;;;;;;;2.20;99.90;;;;;;5039583;28;19935;-79
2021/12/10 09:39:22;;;;;;;;;;;2.20;99.90;;;;;;5039544;28;20100;-79
2021/12/10 09:41:48;;;;;;;;;;;2.20;99.90;;;;;;5021516;28;20282;-79
2021/12/10 09:44:15;;;;;;;;;;;2.30;99.90;;;;;;5039319;28;19923;-79
2021/12/10 09:46:41;;;;;;;;;;;2.30;99.90;;;;;;5038924;28;19928;-79
2021/12/10 09:49:08;;;;;;;;;;;2.30;99.90;;;;;;5021325;28;19921;-79
2021/12/10 09:51:36;;;;;;;;;;;2.80;99.90;;;;;;5039309;28;20402;-79
2021/12/10 09:54:05;;;;;;;;;;;2.40;99.90;;;;;;5038662;28;19921;-79
2021/12/10 09:56:30;;;;;;;;;;;2.90;99.90;;;;;;5038069;28;19921;-79
2021/12/10 09:58:57;;;;;;;;;;;2.50;99.90;;;;;;5037549;28;19925;-79
2021/12/10 10:01:30;;;;;;;;;;;2.50;99.90;;;;;;5037398;28;19925;-79
2021/12/10 10:04:01;;;;;;;;;;;2.50;99.90;;;;;;5037504;28;19920;-79
2021/12/10 10:06:36;;;;;;;;;;;2.60;99.90;;;;;;5038041;28;19921;-79
2021/12/10 10:09:03;;;;;;;;;;;2.60;99.90;;;;;;5037863;28;19982;-79
2021/12/10 10:11:32;;;;;;;;;;;2.70;99.90;;;;;;5037393;28;19928;-79
2021/12/10 10:13:58;;;;;;;;;;;2.70;99.90;;;;;;5037644;28;19921;-79
2021/12/10 10:16:25;;;;;;;;;;;2.80;99.90;;;;;;5037863;28;20092;-79
2021/12/10 10:18:51;;;;;;;;;;;2.80;99.90;;;;;;5038612;28;20335;-79
2021/12/10 10:21:18;;;;;;;;;;;2.80;99.90;;;;;;5038025;28;20367;-79
2021/12/10 10:23:44;;;;;;;;;;;2.90;99.90;;;;;;5037808;28;20330;-79
2021/12/10 10:26:17;;;;;;;;;;;2.90;99.90;;;;;;5037463;28;20019;-79
2021/12/10 10:28:43;;;;;;;;;;;3.00;99.90;;;;;;5019242;28;19925;-79
2021/12/10 10:31:12;;;;;;;;;;;3.00;99.90;;;;;;5037505;28;19923;-80
2021/12/10 10:33:39;;;;;;;;;;;3.10;99.90;;;;;;5020672;28;19921;-79
2021/12/10 10:36:16;;;;;;;;;;;3.10;99.90;;;;;;5038133;28;19921;-80
2021/12/10 10:38:46;;;;;;;;;;;3.10;99.90;;;;;;5020281;28;19932;-79
2021/12/10 10:41:12;;;;;;;;;;;3.10;99.90;;;;;;5038204;28;19921;-79
2021/12/10 10:43:37;;;;;;;;;;;3.10;99.90;;;;;;5037714;28;19927;-79
2021/12/10 10:46:03;;;;;;;;;;;3.20;99.90;;;;;;5036388;28;19921;-80
2021/12/10 10:48:29;;;;;;;;;;;3.20;99.90;;;;;;5037834;28;19928;-79
2021/12/10 10:51:03;;;;;;;;;;;3.20;99.90;;;;;;5038025;28;19921;-79
2021/12/10 10:53:31;;;;;;;;;;;3.20;99.90;;;;;;5019787;28;20019;-80
2021/12/10 10:56:08;;;;;;;;;;;3.70;99.90;;;;;;5020142;28;20281;-79
2021/12/10 10:58:43;;;;;;;;;;;3.40;99.90;;;;;;5037500;28;19987;-79
2021/12/10 11:01:24;;;;;;;;;;;3.40;99.90;;;;;;5035924;28;20088;-79
2021/12/10 11:03:58;;;;;;;;;;;3.50;99.90;;;;;;5021075;28;20367;-79
2021/12/10 11:06:27;;;;;;;;;;;3.60;99.90;;;;;;5020387;28;20405;-79
2021/12/10 11:08:55;;;;;;;;;;;3.60;99.90;;;;;;5037597;28;19925;-79
2021/12/10 11:11:20;;;;;;;;;;;3.70;99.90;;;;;;5038132;28;19920;-80
2021/12/10 11:13:48;;;;;;;;;;;3.60;99.90;;;;;;5037199;28;19943;-79
2021/12/10 11:16:18;;;;;;;;;;;3.70;99.90;;;;;;5037746;28;20283;-79
2021/12/10 11:18:46;;;;;;;;;;;3.70;99.90;;;;;;5037663;28;19943;-79
2021/12/10 11:21:12;;;;;;;;;;;3.70;99.90;;;;;;5036448;28;20023;-80
2021/12/10 11:23:39;;;;;;;;;;;3.80;99.90;;;;;;5036884;28;19971;-80
2021/12/10 11:26:05;;;;;;;;;;;3.80;99.90;;;;;;5025910;28;19917;-80
2021/12/10 11:28:33;;;;;;;;;;;3.70;99.90;;;;;;5018125;28;20281;-79
2021/12/10 11:31:10;;;;;;;;;;;3.80;99.90;;;;;;5032722;28;19917;-79
2021/12/10 11:33:41;;;;;;;;;;;4.00;99.90;;;;;;5036557;28;19921;-79
2021/12/10 11:36:12;;;;;;;;;;;3.80;99.90;;;;;;5017290;28;20005;-80
2021/12/10 11:38:38;;;;;;;;;;;3.90;99.90;;;;;;5017130;28;19925;-80
2021/12/10 11:41:03;;;;;;;;;;;4.30;99.90;;;;;;5030297;28;19928;-79
2021/12/10 11:43:44;;;;;;;;;;;3.90;99.90;;;;;;5018306;28;19975;-80
2021/12/10 11:48:43;;;;;;;;;;;4.00;99.90;;;;;;5036412;28;19927;-80
2021/12/10 11:51:08;;;;;;;;;;;4.00;99.90;;;;;;5037656;28;19978;-80
2021/12/10 11:53:36;;;;;;;;;;;4.00;99.90;;;;;;5019466;28;20007;-80
2021/12/10 11:56:05;;;;;;;;;;;4.00;99.90;;;;;;5036297;28;20007;-80
2021/12/10 11:58:30;;;;;;;;;;;4.00;99.90;;;;;;5037504;28;19917;-80
2021/12/10 12:00:58;;;;;;;;;;;4.00;99.90;;;;;;5018719;28;20410;-80
2021/12/10 12:03:32;;;;;;;;;;;4.00;99.90;;;;;;5037247;28;19925;-80
2021/12/10 12:05:59;;;;;;;;;;;4.00;99.90;;;;;;5037255;28;19921;-80
2021/12/10 12:08:25;;;;;;;;;;;4.50;99.90;;;;;;5036903;28;19976;-80
2021/12/10 12:10:52;;;;;;;;;;;4.10;99.90;;;;;;5038028;28;19971;-79
2021/12/10 12:13:30;;;;;;;;;;;4.10;99.90;;;;;;5035752;28;19921;-80
2021/12/10 12:16:00;;;;;;;;;;;4.10;99.90;;;;;;5033675;28;19925;-80
2021/12/10 12:18:29;;;;;;;;;;;4.10;99.90;;;;;;5036143;28;19943;-79
2021/12/10 12:20:59;;;;;;;;;;;4.30;99.90;;;;;;5036326;28;20375;-80
2021/12/10 12:26:11;;;;;;;;;;;4.10;99.90;;;;;;5035355;28;19921;-80
2021/12/10 12:28:39;;;;;;;;;;;4.20;99.90;;;;;;5034963;28;19921;-80
2021/12/10 12:31:08;;;;;;;;;;;4.10;99.90;;;;;;5034093;28;20402;-80
2021/12/10 12:33:49;;;;;;;;;;;4.20;99.90;;;;;;5018100;28;19921;-79
2021/12/10 12:36:15;;;;;;;;;;;4.30;99.90;;;;;;5017707;28;19927;-79
2021/12/10 12:38:42;;;;;;;;;;;4.20;99.90;;;;;;5037475;28;20011;-79
2021/12/10 12:41:14;;;;;;;;;;;4.20;99.90;;;;;;5018377;28;20426;-80
2021/12/10 12:43:40;;;;;;;;;;;4.20;99.90;;;;;;5040874;28;19921;-80
2021/12/10 12:46:07;;;;;;;;;;;4.20;99.90;;;;;;5040459;28;19928;-80
2021/12/10 12:48:33;;;;;;;;;;;4.30;99.90;;;;;;5036089;28;19932;-80
2021/12/10 12:51:06;;;;;;;;;;;4.30;99.90;;;;;;5036275;28;20283;-80
2021/12/10 12:53:34;;;;;;;;;;;4.30;99.90;;;;;;5037767;28;19925;-80
2021/12/10 12:56:03;;;;;;;;;;;4.70;99.90;;;;;;5034946;28;20376;-80
2021/12/10 12:58:35;;;;;;;;;;;4.30;99.90;;;;;;5036508;28;20382;-80
2021/12/10 13:01:02;;;;;;;;;;;4.30;99.90;;;;;;5035967;28;20431;-80
2021/12/10 13:03:43;;;;;;;;;;;4.30;99.90;;;;;;5035647;28;19928;-80
2021/12/10 13:06:18;;;;;;;;;;;4.30;99.90;;;;;;5035578;28;19921;-80
2021/12/10 13:08:45;;;;;;;;;;;4.30;99.90;;;;;;5033961;28;19921;-80
2021/12/10 13:11:26;;;;;;;;;;;4.30;99.90;;;;;;5035735;28;19921;-80
2021/12/10 13:14:20;;;;;;;;;;;4.30;99.90;;;;;;5035591;28;19928;-80
2021/12/10 13:16:46;;;;;;;;;;;4.30;99.90;;;;;;5017724;28;20371;-80
2021/12/10 13:19:16;;;;;;;;;;;4.30;99.90;;;;;;5036119;28;19921;-80
2021/12/10 13:21:52;;;;;;;;;;;4.30;99.90;;;;;;5037409;28;19932;-80
2021/12/10 13:24:18;;;;;;;;;;;4.50;99.90;;;;;;5035967;28;19921;-80
2021/12/10 13:26:44;;;;;;;;;;;4.60;99.90;;;;;;5035634;28;20000;-80
2021/12/10 13:29:09;;;;;;;;;;;4.80;99.90;;;;;;5033387;28;19971;-80
2021/12/10 13:31:36;;;;;;;;;;;4.80;99.90;;;;;;5034811;28;19925;-80
2021/12/10 13:34:03;;;;;;;;;;;4.80;99.90;;;;;;5033418;28;19944;-80
2021/12/10 13:36:28;;;;;;;;;;;4.80;99.90;;;;;;5033525;28;19921;-80
2021/12/10 13:38:54;;;;;;;;;;;5.70;99.90;;;;;;5021090;28;19928;-80
2021/12/10 13:41:21;;;;;;;;;;;4.70;99.90;;;;;;5033693;28;19921;-80
2021/12/10 13:43:52;;;;;;;;;;;5.30;99.90;;;;;;5034938;28;19921;-80
2021/12/10 13:46:18;;;;;;;;;;;4.60;99.90;;;;;;5035774;28;20356;-80
2021/12/10 13:48:46;;;;;;;;;;;4.50;99.90;;;;;;5019641;28;19936;-79
2021/12/10 13:51:14;;;;;;;;;;;4.40;99.90;;;;;;5037442;28;20319;-79
2021/12/10 13:53:40;;;;;;;;;;;5.20;99.90;;;;;;5037503;28;20016;-79
2021/12/10 13:56:10;;;;;;;;;;;4.30;99.90;;;;;;5019284;28;19972;-79
2021/12/10 13:58:43;;;;;;;;;;;4.20;99.90;;;;;;5021280;28;20115;-79
2021/12/10 14:01:23;;;;;;;;;;;4.10;99.90;;;;;;5015883;28;20375;-79
2021/12/10 14:03:53;;;;;;;;;;;4.00;99.90;;;;;;5017158;28;19929;-79
2021/12/10 14:06:33;;;;;;;;;;;3.90;99.90;;;;;;5017063;28;19921;-79
2021/12/10 14:09:11;;;;;;;;;;;3.90;99.90;;;;;;5015768;28;19925;-79
2021/12/10 14:11:52;;;;;;;;;;;3.80;99.90;;;;;;5016822;28;19975;-79
2021/12/10 14:14:18;;;;;;;;;;;3.80;99.90;;;;;;5016944;28;19967;-79
2021/12/10 14:16:48;;;;;;;;;;;3.80;99.90;;;;;;5015840;28;19921;-79
2021/12/10 14:19:31;;;;;;;;;;;3.70;99.90;;;;;;5017065;28;20372;-79
2021/12/10 14:21:58;;;;;;;;;;;3.70;99.90;;;;;;5017150;28;19921;-80
2021/12/10 14:24:39;;;;;;;;;;;3.90;99.90;;;;;;5016301;28;20308;-79
2021/12/10 14:27:08;;;;;;;;;;;3.50;99.90;;;;;;5016757;28;19944;-79
2021/12/10 14:29:33;;;;;;;;;;;3.50;99.90;;;;;;5016953;28;19921;-79
2021/12/10 14:32:00;;;;;;;;;;;3.30;99.90;;;;;;5017166;28;19929;-79
2021/12/10 14:34:25;;;;;;;;;;;3.30;99.90;;;;;;5015478;28;19921;-79
2021/12/10 14:37:00;;;;;;;;;;;3.20;99.90;;;;;;5014535;28;20279;-79
2021/12/10 14:39:26;;;;;;;;;;;3.20;99.90;;;;;;5014900;28;19961;-79
2021/12/10 14:41:54;;;;;;;;;;;3.10;99.90;;;;;;5017129;28;19947;-79
2021/12/10 14:44:22;;;;;;;;;;;3.00;99.90;;;;;;5016239;28;20434;-79
2021/12/10 14:46:57;;;;;;;;;;;2.90;99.90;;;;;;5016594;28;19921;-79